Hlavní strana
METAR-TAF:

METAR-TAF

Letiště :

Bamako, Mali

zeměpisná šířka: 12-32N, zeměpisná délka: 007-57W, výška: 380 m

Aktuální stav počasí

Zpráva byla vytvořena před 1 hodinou a 26 minutami, v 03:00 UTC
Severoseverovýchodní vítr 3 kt
Teplota 21°C
Vlhkost vzduchu 49%
Tlak 1013 hPa
Viditelnost: 8000 m

METAR: GABS 220300Z 02003KT 8000 NSC 21/10 Q1013 NOSIG

Čas: 04:26 (04:26 UTC)

Předpověď počasí

Zpráva byla vytvořena před 4 hodinami a 46 minutami, v 23:40 UTC
Předpověď platná od 22 v 00 UTC do 23 v 06 UTC
Severovýchodní vítr 6 kt
Viditelnost: 8000 m

TAF: GABS 212340Z 2200/2306 04006KT 8000 NSC

Stav a předpovědi počasí z více než 4 000 letišť (zprávy METAR a TAF).

Červené a žluté tečky na mapě představují dostupné meteorologické stanice.

Když kurzor umístíte na tečku, zobrazí se název stanice.

Pak kliknutím zobrazíte stav a předpověď počasí.

Chcete-li změnit mapu, kliknutím na zelené tlačítko se znaménkem +mapu přiblížíte, kliknutím na zelené tlačítko se znaménkem – mapu oddálíte a kliknutím na zelené šipky přejdete na sousední mapy.


METAR-TAF: